Time;durP1;ratioP1;P1;durP2;ratioP2;P2;SDS_P1;SDS_P2;PMS_P1;PMS_P2;Temp;Humidity;BMP_temperature;BMP_pressure;BME280_temperature;BME280_humidity;BME280_pressure;Samples;Min_cycle;Max_cycle;Signal;HPM_P1;HPM_P2
2021/12/28 00:01:31;;;;;;;0.95;0.95;;;5.50;99.90;;;;;;5073278;28;20200;-70
2021/12/28 00:03:58;;;;;;;0.90;0.90;;;5.50;99.90;;;;;;5073233;28;20318;-70
2021/12/28 00:06:27;;;;;;;0.80;0.80;;;5.50;99.90;;;;;;5073181;28;20248;-70
2021/12/28 00:08:53;;;;;;;0.73;0.73;;;5.40;99.90;;;;;;5073215;28;20200;-70
2021/12/28 00:11:20;;;;;;;0.70;0.70;;;5.40;99.90;;;;;;5073124;28;20722;-70
2021/12/28 00:13:47;;;;;;;0.70;0.70;;;5.30;99.90;;;;;;5072835;28;20199;-70
2021/12/28 00:16:30;;;;;;;0.70;0.70;;;5.30;99.90;;;;;;5073229;28;20267;-70
2021/12/28 00:18:58;;;;;;;0.70;0.70;;;5.20;99.90;;;;;;5072851;28;20650;-70
2021/12/28 00:21:27;;;;;;;0.85;0.85;;;5.20;99.90;;;;;;5073230;28;20286;-70
2021/12/28 00:23:54;;;;;;;0.70;0.70;;;5.20;99.90;;;;;;5072976;28;20689;-70
2021/12/28 00:26:22;;;;;;;1.52;1.35;;;5.20;99.90;;;;;;5073006;28;20224;-70
2021/12/28 00:28:50;;;;;;;1.50;1.40;;;5.30;99.90;;;;;;5072816;28;20200;-70
2021/12/28 00:31:17;;;;;;;1.63;1.52;;;5.30;99.90;;;;;;5072834;28;20208;-69
2021/12/28 00:33:45;;;;;;;1.63;1.52;;;5.40;99.90;;;;;;5072619;28;20290;-69
2021/12/28 00:36:14;;;;;;;1.85;1.80;;;5.40;99.90;;;;;;5073021;28;20204;-69
2021/12/28 00:38:42;;;;;;;1.90;1.88;;;5.40;99.90;;;;;;5072901;28;20283;-69
2021/12/28 00:41:09;;;;;;;1.73;1.70;;;5.40;99.90;;;;;;5072858;28;20282;-69
2021/12/28 00:43:37;;;;;;;2.78;1.25;;;5.50;99.90;;;;;;5072849;28;20283;-69
2021/12/28 00:46:06;;;;;;;1.38;1.35;;;5.50;99.90;;;;;;5072458;28;20216;-69
2021/12/28 00:48:33;;;;;;;1.30;1.30;;;5.60;99.90;;;;;;5072434;28;20691;-69
2021/12/28 00:51:00;;;;;;;1.10;1.10;;;5.60;99.90;;;;;;5072450;28;20211;-69
2021/12/28 00:53:27;;;;;;;1.05;1.05;;;5.70;99.90;;;;;;5072795;28;20211;-69
2021/12/28 00:55:56;;;;;;;1.15;1.13;;;5.70;99.90;;;;;;5072694;28;20413;-69
2021/12/28 00:58:23;;;;;;;1.05;1.02;;;5.70;99.90;;;;;;5075949;28;20291;-69
2021/12/28 01:00:51;;;;;;;0.90;0.90;;;5.60;99.90;;;;;;5076036;28;20204;-69
2021/12/28 01:03:18;;;;;;;0.90;0.90;;;5.60;99.90;;;;;;5076106;28;20645;-69
2021/12/28 01:05:46;;;;;;;0.90;0.90;;;5.60;99.90;;;;;;5075880;28;20787;-69
2021/12/28 01:08:14;;;;;;;0.82;0.82;;;5.50;99.90;;;;;;5076350;28;20287;-69
2021/12/28 01:10:45;;;;;;;0.82;0.82;;;5.40;99.90;;;;;;5076129;28;20196;-69
2021/12/28 01:13:14;;;;;;;0.70;0.70;;;5.40;99.90;;;;;;5076144;28;20180;-69
2021/12/28 01:15:41;;;;;;;0.80;0.80;;;5.30;99.90;;;;;;5075611;28;20318;-69
2021/12/28 01:18:08;;;;;;;0.90;0.90;;;5.20;99.90;;;;;;5075676;28;20689;-69
2021/12/28 01:20:35;;;;;;;0.95;0.95;;;5.20;99.90;;;;;;5075895;28;20207;-69
2021/12/28 01:23:03;;;;;;;1.05;1.05;;;5.20;99.90;;;;;;5075960;28;20627;-69
2021/12/28 01:25:30;;;;;;;1.25;1.25;;;5.20;99.90;;;;;;5075826;28;20223;-69
2021/12/28 01:27:56;;;;;;;1.42;1.42;;;5.20;99.90;;;;;;5075423;28;20664;-69
2021/12/28 01:30:26;;;;;;;1.20;1.20;;;5.20;99.90;;;;;;5076362;28;20307;-69
2021/12/28 01:32:54;;;;;;;1.27;1.23;;;5.20;99.90;;;;;;5075398;28;20200;-69
2021/12/28 01:35:21;;;;;;;1.00;1.00;;;5.20;99.90;;;;;;5075629;28;20312;-69
2021/12/28 01:37:49;;;;;;;0.90;0.90;;;5.30;99.90;;;;;;5075645;28;20283;-69
2021/12/28 01:40:19;;;;;;;0.77;0.77;;;5.30;99.90;;;;;;5075841;28;20279;-69
2021/12/28 01:43:06;;;;;;;1.02;1.02;;;5.30;99.90;;;;;;5075554;28;20202;-69
2021/12/28 01:45:38;;;;;;;1.08;1.08;;;5.30;99.90;;;;;;5076237;28;20310;-69
2021/12/28 01:48:06;;;;;;;0.80;0.80;;;5.30;99.90;;;;;;5075124;28;20258;-69
2021/12/28 01:50:33;;;;;;;0.82;0.82;;;5.40;99.90;;;;;;5075316;28;20231;-69
2021/12/28 01:53:00;;;;;;;0.90;0.90;;;5.40;99.90;;;;;;5075360;28;20204;-69
2021/12/28 01:55:27;;;;;;;0.98;0.98;;;5.40;99.90;;;;;;5074838;28;20656;-69
2021/12/28 01:57:54;;;;;;;0.93;0.93;;;5.40;99.90;;;;;;5074950;28;20607;-69
2021/12/28 02:00:22;;;;;;;0.90;0.90;;;5.40;99.90;;;;;;5074860;28;20647;-69
2021/12/28 02:02:51;;;;;;;0.75;0.70;;;5.40;99.90;;;;;;5074789;28;20663;-69
2021/12/28 06:09:41;;;;;;;1.85;0.85;;;6.20;99.90;;;;;;5488316;22;20321;-72
2021/12/28 06:12:09;;;;;;;0.93;0.93;;;6.20;99.90;;;;;;5095290;28;20648;-72
2021/12/28 06:14:36;;;;;;;1.15;0.82;;;6.20;99.90;;;;;;5095480;28;20199;-71
2021/12/28 06:17:03;;;;;;;0.93;0.90;;;6.20;99.90;;;;;;5095543;28;20230;-71
2021/12/28 06:19:30;;;;;;;0.60;0.60;;;6.20;99.90;;;;;;5095297;28;20305;-72
2021/12/28 06:21:57;;;;;;;0.70;0.70;;;6.30;99.90;;;;;;5115625;22;21442;-66
2021/12/28 06:24:24;;;;;;;0.63;0.63;;;6.30;99.90;;;;;;5074795;28;20279;-67
2021/12/28 06:26:52;;;;;;;0.88;0.88;;;6.30;99.90;;;;;;5074616;28;20219;-67
2021/12/28 06:29:19;;;;;;;0.70;0.70;;;6.30;99.90;;;;;;5074366;28;20250;-67
2021/12/28 06:31:46;;;;;;;0.90;0.90;;;6.30;99.90;;;;;;5074527;28;20206;-67
2021/12/28 06:34:13;;;;;;;0.90;0.88;;;6.30;99.90;;;;;;5074696;28;20257;-67
2021/12/28 06:36:40;;;;;;;1.35;0.63;;;6.30;99.90;;;;;;5074625;28;20280;-67
2021/12/28 06:39:07;;;;;;;0.80;0.80;;;6.40;99.90;;;;;;5074350;28;20203;-67
2021/12/28 06:41:34;;;;;;;0.50;0.50;;;6.30;99.90;;;;;;5074433;28;20287;-67
2021/12/28 06:44:03;;;;;;;0.50;0.50;;;6.30;99.90;;;;;;5074517;28;20290;-67
2021/12/28 06:46:30;;;;;;;0.50;0.50;;;6.30;99.90;;;;;;5074781;28;20303;-67
2021/12/28 06:48:57;;;;;;;0.50;0.50;;;6.30;99.90;;;;;;5074221;28;20235;-68
2021/12/28 06:51:24;;;;;;;0.70;0.70;;;6.30;99.90;;;;;;5073866;28;20220;-68
2021/12/28 06:53:51;;;;;;;0.47;0.47;;;6.30;99.90;;;;;;5073690;28;20216;-68
2021/12/28 06:56:17;;;;;;;0.50;0.50;;;6.30;99.90;;;;;;5073585;28;20667;-68
2021/12/28 06:58:44;;;;;;;0.57;0.57;;;6.30;99.90;;;;;;5074201;28;20200;-67
2021/12/28 07:01:13;;;;;;;0.98;0.60;;;6.30;99.90;;;;;;5073824;28;20206;-67
2021/12/28 07:03:39;;;;;;;0.60;0.60;;;6.30;99.90;;;;;;5073779;28;20326;-67
2021/12/28 07:06:07;;;;;;;0.40;0.40;;;6.30;99.90;;;;;;5073899;28;20310;-67
2021/12/28 07:08:34;;;;;;;0.50;0.50;;;6.30;99.90;;;;;;5073678;28;20670;-67
2021/12/28 07:11:01;;;;;;;0.50;0.50;;;6.40;99.90;;;;;;5073999;28;20569;-67
2021/12/28 07:13:28;;;;;;;0.90;0.60;;;6.30;99.90;;;;;;5073865;28;20310;-67
2021/12/28 07:15:55;;;;;;;0.43;0.43;;;6.30;99.90;;;;;;5073952;28;20286;-67
2021/12/28 07:18:23;;;;;;;0.50;0.50;;;6.30;99.90;;;;;;5073501;28;20749;-67
2021/12/28 07:20:50;;;;;;;0.43;0.43;;;6.30;99.90;;;;;;5073789;28;20208;-67
2021/12/28 07:23:17;;;;;;;0.60;0.60;;;6.30;99.90;;;;;;5073495;28;20293;-67
2021/12/28 07:25:44;;;;;;;0.60;0.60;;;6.40;99.90;;;;;;5073499;28;20751;-67
2021/12/28 07:28:11;;;;;;;0.40;0.40;;;6.40;99.90;;;;;;5073617;28;20302;-67
2021/12/28 07:30:38;;;;;;;0.50;0.50;;;6.40;99.90;;;;;;5073311;28;20662;-67
2021/12/28 07:33:05;;;;;;;0.50;0.50;;;6.40;99.90;;;;;;5073625;28;20306;-67
2021/12/28 07:35:34;;;;;;;0.45;0.45;;;6.40;99.90;;;;;;5073605;28;20196;-68
2021/12/28 07:38:00;;;;;;;0.50;0.50;;;6.40;99.90;;;;;;5073221;28;20604;-68
2021/12/28 07:40:27;;;;;;;0.50;0.50;;;6.40;99.90;;;;;;5073182;28;20207;-68
2021/12/28 07:42:54;;;;;;;0.40;0.40;;;6.40;99.90;;;;;;5073483;28;20216;-67
2021/12/28 07:45:22;;;;;;;0.50;0.50;;;6.40;99.90;;;;;;5073489;28;20206;-67
2021/12/28 07:47:49;;;;;;;0.40;0.40;;;6.50;99.90;;;;;;5073287;28;20314;-66
2021/12/28 07:50:18;;;;;;;0.40;0.40;;;6.50;99.90;;;;;;5073298;28;20199;-66
2021/12/28 07:52:47;;;;;;;0.60;0.60;;;6.50;99.90;;;;;;5073350;28;20320;-66
2021/12/28 07:55:15;;;;;;;0.40;0.40;;;6.50;99.90;;;;;;5073317;28;20206;-66
2021/12/28 07:57:42;;;;;;;0.40;0.40;;;6.60;99.90;;;;;;5073446;28;20202;-66
2021/12/28 08:00:15;;;;;;;0.40;0.40;;;6.70;99.90;;;;;;5073035;28;20754;-67
2021/12/28 08:02:43;;;;;;;0.50;0.50;;;6.70;99.90;;;;;;5072934;28;20302;-67
2021/12/28 08:05:11;;;;;;;0.50;0.50;;;6.70;99.90;;;;;;5072961;28;20564;-67
2021/12/28 08:07:38;;;;;;;0.60;0.60;;;6.70;99.90;;;;;;5076396;28;20417;-67
2021/12/28 08:10:08;;;;;;;0.73;0.73;;;6.60;99.90;;;;;;5077289;28;20196;-67
2021/12/28 08:12:35;;;;;;;0.80;0.80;;;6.60;99.90;;;;;;5077255;28;20315;-67
2021/12/28 08:15:03;;;;;;;0.65;0.65;;;6.60;99.90;;;;;;5077282;28;20204;-67
2021/12/28 08:17:30;;;;;;;0.55;0.55;;;6.70;99.90;;;;;;5076797;28;20598;-67
2021/12/28 08:19:57;;;;;;;0.65;0.65;;;6.70;99.90;;;;;;5077145;28;20210;-67
2021/12/28 08:22:24;;;;;;;0.70;0.70;;;6.70;99.90;;;;;;5077375;28;20315;-67
2021/12/28 08:24:51;;;;;;;0.60;0.60;;;6.70;99.90;;;;;;5077033;28;20290;-67
2021/12/28 08:27:19;;;;;;;0.40;0.40;;;6.70;99.90;;;;;;5076621;28;20693;-67
2021/12/28 08:29:46;;;;;;;0.50;0.50;;;6.70;99.90;;;;;;5076716;28;20559;-67
2021/12/28 08:32:13;;;;;;;0.60;0.60;;;6.70;99.90;;;;;;5077052;28;20216;-67
2021/12/28 08:34:40;;;;;;;0.40;0.40;;;6.80;99.90;;;;;;5076931;28;20204;-67
2021/12/28 08:37:07;;;;;;;0.57;0.57;;;6.70;99.90;;;;;;5076593;28;20216;-67
2021/12/28 08:39:33;;;;;;;0.60;0.60;;;6.80;99.90;;;;;;5076630;28;20188;-67
2021/12/28 08:42:00;;;;;;;0.40;0.40;;;6.80;99.90;;;;;;5076768;28;20315;-67
2021/12/28 08:44:29;;;;;;;0.40;0.40;;;6.90;99.90;;;;;;5076408;28;20290;-68
2021/12/28 08:46:56;;;;;;;0.45;0.45;;;6.90;99.90;;;;;;5076558;28;20184;-68
2021/12/28 08:49:25;;;;;;;0.52;0.52;;;6.90;99.90;;;;;;5076289;28;20759;-67
2021/12/28 08:51:52;;;;;;;0.40;0.40;;;6.90;99.90;;;;;;5076526;28;20200;-67
2021/12/28 08:54:19;;;;;;;0.50;0.50;;;7.00;99.90;;;;;;5076570;28;20684;-68
2021/12/28 08:56:47;;;;;;;0.45;0.45;;;7.00;99.90;;;;;;5076618;28;20191;-67
2021/12/28 08:59:13;;;;;;;0.40;0.40;;;6.90;99.90;;;;;;5076541;28;20231;-68
2021/12/28 09:01:42;;;;;;;0.40;0.40;;;7.00;99.90;;;;;;5076438;28;20200;-68
2021/12/28 09:04:09;;;;;;;0.40;0.40;;;7.00;99.90;;;;;;5076380;28;20306;-68
2021/12/28 09:06:36;;;;;;;0.50;0.50;;;7.00;99.90;;;;;;5076598;28;20235;-67
2021/12/28 09:09:03;;;;;;;0.50;0.50;;;7.00;99.90;;;;;;5076429;28;20318;-67
2021/12/28 09:11:30;;;;;;;0.55;0.55;;;7.10;99.90;;;;;;5076348;28;20287;-67
2021/12/28 09:13:57;;;;;;;0.50;0.50;;;7.10;99.90;;;;;;5076147;28;20251;-67
2021/12/28 09:16:24;;;;;;;1.08;0.40;;;7.20;99.90;;;;;;5076648;28;20302;-67
2021/12/28 09:18:52;;;;;;;0.50;0.50;;;7.20;99.90;;;;;;5075897;28;20196;-70
2021/12/28 09:21:19;;;;;;;0.80;0.80;;;7.30;99.90;;;;;;5076262;28;20644;-69
2021/12/28 09:23:46;;;;;;;0.47;0.47;;;7.30;99.90;;;;;;5075891;28;20314;-69
2021/12/28 09:26:13;;;;;;;0.60;0.60;;;7.40;99.90;;;;;;5075657;28;20292;-69
2021/12/28 09:28:40;;;;;;;0.50;0.50;;;7.40;99.90;;;;;;5075838;28;20214;-70
2021/12/28 09:31:07;;;;;;;0.70;0.70;;;7.40;99.90;;;;;;5075832;28;20204;-70
2021/12/28 09:33:34;;;;;;;0.90;0.90;;;7.50;99.90;;;;;;5075713;28;20314;-70
2021/12/28 09:36:05;;;;;;;1.25;1.15;;;7.50;99.90;;;;;;5075685;28;20283;-70
2021/12/28 09:38:32;;;;;;;0.73;0.73;;;7.50;99.90;;;;;;5075308;28;20184;-70
2021/12/28 09:40:59;;;;;;;1.83;1.52;;;7.60;99.90;;;;;;5075698;28;20203;-70
2021/12/28 09:43:27;;;;;;;1.70;1.20;;;7.60;99.90;;;;;;5075540;28;20258;-70
2021/12/28 09:45:54;;;;;;;1.10;1.10;;;7.60;99.90;;;;;;5075562;28;20242;-70
2021/12/28 09:48:21;;;;;;;0.90;0.90;;;7.70;99.90;;;;;;5075542;28;20220;-67
2021/12/28 09:50:48;;;;;;;1.00;1.00;;;7.70;99.90;;;;;;5075444;28;20295;-68
2021/12/28 09:53:17;;;;;;;0.80;0.80;;;7.70;99.90;;;;;;5075588;28;20224;-68
2021/12/28 09:55:44;;;;;;;0.70;0.70;;;7.70;99.90;;;;;;5075359;28;20203;-68
2021/12/28 09:58:11;;;;;;;0.70;0.70;;;7.70;99.90;;;;;;5075337;28;20287;-68
2021/12/28 10:00:38;;;;;;;1.17;0.70;;;7.80;99.90;;;;;;5074920;28;20667;-68
2021/12/28 10:03:05;;;;;;;0.70;0.70;;;7.80;99.90;;;;;;5074971;28;20223;-69
2021/12/28 10:05:33;;;;;;;0.80;0.80;;;7.90;99.90;;;;;;5075278;28;20290;-69
2021/12/28 10:08:03;;;;;;;0.85;0.80;;;7.90;99.90;;;;;;5074872;28;20241;-69
2021/12/28 10:10:33;;;;;;;0.80;0.80;;;8.00;99.90;;;;;;5075085;28;20286;-69
2021/12/28 10:13:02;;;;;;;0.50;0.50;;;8.00;99.90;;;;;;5075106;28;20311;-69
2021/12/28 10:15:31;;;;;;;0.50;0.50;;;8.00;99.90;;;;;;5074825;28;20188;-68
2021/12/28 10:18:00;;;;;;;0.73;0.73;;;8.10;99.90;;;;;;5074909;28;20292;-69
2021/12/28 10:20:29;;;;;;;0.60;0.60;;;8.20;99.90;;;;;;5074940;28;20291;-68
2021/12/28 10:22:59;;;;;;;0.60;0.60;;;8.20;99.90;;;;;;5074580;28;20322;-67
2021/12/28 10:25:29;;;;;;;0.50;0.50;;;8.30;99.90;;;;;;5074992;28;20200;-67
2021/12/28 10:27:59;;;;;;;0.40;0.40;;;8.30;99.90;;;;;;5074830;28;20231;-67
2021/12/28 10:30:28;;;;;;;0.40;0.40;;;8.30;99.90;;;;;;5073902;28;20263;-67
2021/12/28 10:32:57;;;;;;;0.45;0.45;;;8.40;99.90;;;;;;5074845;28;20226;-68
2021/12/28 10:35:27;;;;;;;0.40;0.40;;;8.40;99.90;;;;;;5075065;28;20275;-67
2021/12/28 10:37:57;;;;;;;0.40;0.40;;;8.50;99.90;;;;;;5074531;28;20697;-67
2021/12/28 10:40:27;;;;;;;0.50;0.50;;;8.50;99.90;;;;;;5075590;28;20206;-67
2021/12/28 10:43:03;;;;;;;0.43;0.43;;;8.70;99.90;;;;;;5075158;28;20335;-67
2021/12/28 10:45:36;;;;;;;0.60;0.60;;;8.70;99.90;;;;;;5075221;28;20192;-67
2021/12/28 10:48:09;;;;;;;0.50;0.50;;;8.80;99.90;;;;;;5074579;28;20204;-67
2021/12/28 10:50:39;;;;;;;0.50;0.50;;;8.90;99.90;;;;;;5073998;28;20186;-68
2021/12/28 10:53:11;;;;;;;0.55;0.55;;;9.00;99.90;;;;;;5074503;28;20698;-68
2021/12/28 10:55:39;;;;;;;0.70;0.70;;;9.10;99.90;;;;;;5074662;28;20195;-69
2021/12/28 10:58:08;;;;;;;0.60;0.60;;;9.20;99.90;;;;;;5074544;28;20202;-69
2021/12/28 11:00:38;;;;;;;0.70;0.70;;;9.20;99.90;;;;;;5074373;28;20262;-69
2021/12/28 11:03:30;;;;;;;0.68;0.68;;;9.20;99.90;;;;;;5074596;28;20737;-69
2021/12/28 11:05:58;;;;;;;0.60;0.60;;;9.30;99.90;;;;;;5073939;28;20654;-69
2021/12/28 11:08:27;;;;;;;0.55;0.55;;;9.40;99.90;;;;;;5073954;28;20230;-69
2021/12/28 11:10:58;;;;;;;0.60;0.60;;;9.40;99.90;;;;;;5073671;28;20750;-69
2021/12/28 11:13:30;;;;;;;0.43;0.43;;;9.50;99.90;;;;;;5073660;28;20270;-69
2021/12/28 11:15:58;;;;;;;0.40;0.40;;;9.40;99.90;;;;;;5073722;28;20710;-69
2021/12/28 11:18:30;;;;;;;0.70;0.70;;;9.50;99.90;;;;;;5074112;28;20295;-68
2021/12/28 11:20:59;;;;;;;0.55;0.55;;;9.50;99.90;;;;;;5073934;28;20224;-68
2021/12/28 11:23:28;;;;;;;0.50;0.50;;;9.50;99.90;;;;;;5073655;28;20231;-68
2021/12/28 11:26:19;;;;;;;0.40;0.40;;;9.40;99.90;;;;;;5073846;28;20199;-68
2021/12/28 11:28:56;;;;;;;0.30;0.30;;;9.40;99.90;;;;;;5073936;28;20212;-68
2021/12/28 11:31:25;;;;;;;0.50;0.50;;;9.50;99.90;;;;;;5073741;28;20190;-68
2021/12/28 11:33:57;;;;;;;0.88;0.88;;;9.50;99.90;;;;;;5073675;28;20306;-68
2021/12/28 11:36:26;;;;;;;1.00;1.00;;;9.50;99.90;;;;;;5073971;28;20271;-68
2021/12/28 11:38:55;;;;;;;0.80;0.80;;;9.60;99.90;;;;;;5073845;28;20195;-68
2021/12/28 11:41:22;;;;;;;0.52;0.52;;;9.60;99.90;;;;;;5073434;28;20212;-68
2021/12/28 11:43:50;;;;;;;0.60;0.60;;;9.70;99.90;;;;;;5073649;28;20310;-68
2021/12/28 11:46:18;;;;;;;1.55;0.60;;;9.70;99.90;;;;;;5074004;28;20287;-68
2021/12/28 11:48:45;;;;;;;0.60;0.60;;;9.70;99.90;;;;;;5073458;28;20689;-67
2021/12/28 11:51:13;;;;;;;0.60;0.60;;;9.70;99.90;;;;;;5073713;28;20192;-67
2021/12/28 11:53:44;;;;;;;0.50;0.50;;;9.70;99.90;;;;;;5073065;28;20733;-68
2021/12/28 11:56:12;;;;;;;0.52;0.52;;;9.70;99.90;;;;;;5073648;28;20212;-70
2021/12/28 11:59:05;;;;;;;0.50;0.50;;;9.70;99.90;;;;;;5073296;28;20204;-70
2021/12/28 12:01:55;;;;;;;0.50;0.50;;;9.60;99.90;;;;;;5059378;28;20211;-69
2021/12/28 12:04:46;;;;;;;0.40;0.40;;;9.60;99.90;;;;;;5073168;28;20290;-69
2021/12/28 12:07:33;;;;;;;0.40;0.40;;;9.60;99.90;;;;;;5073554;28;20202;-69
2021/12/28 12:10:36;;;;;;;0.40;0.40;;;9.60;99.90;;;;;;5073634;28;20208;-69
2021/12/28 12:13:27;;;;;;;0.47;0.47;;;9.50;99.90;;;;;;5072874;28;20227;-69
2021/12/28 12:15:57;;;;;;;0.47;0.47;;;9.60;99.90;;;;;;5073359;28;20279;-69
2021/12/28 12:18:29;;;;;;;0.40;0.40;;;9.60;99.90;;;;;;5073641;28;20192;-69
2021/12/28 12:20:59;;;;;;;0.50;0.50;;;9.60;99.90;;;;;;5073085;28;20184;-69
2021/12/28 12:23:29;;;;;;;0.47;0.47;;;9.70;99.90;;;;;;5109897;22;20310;-65
2021/12/28 12:26:00;;;;;;;0.40;0.40;;;9.70;99.90;;;;;;5093610;28;20221;-65
2021/12/28 12:28:46;;;;;;;0.30;0.30;;;9.70;99.90;;;;;;5093081;28;20219;-65
2021/12/28 12:31:25;;;;;;;0.40;0.40;;;9.70;99.90;;;;;;5093064;28;20198;-65
2021/12/28 12:33:56;;;;;;;0.40;0.40;;;9.70;99.90;;;;;;5093272;28;20309;-66
2021/12/28 12:36:41;;;;;;;0.50;0.50;;;9.70;99.90;;;;;;5093410;28;20214;-65
2021/12/28 12:39:10;;;;;;;0.60;0.60;;;9.70;99.90;;;;;;5090789;28;20290;-66
2021/12/28 12:41:42;;;;;;;0.50;0.50;;;9.60;99.90;;;;;;5093272;28;20302;-66
2021/12/28 12:44:12;;;;;;;0.60;0.60;;;9.60;99.90;;;;;;5093167;28;20219;-66
2021/12/28 12:46:43;;;;;;;1.85;0.75;;;9.60;99.90;;;;;;5092999;28;20208;-66
2021/12/28 12:49:34;;;;;;;0.50;0.50;;;9.50;99.90;;;;;;5093406;28;20569;-66
2021/12/28 12:52:04;;;;;;;0.50;0.50;;;9.50;99.90;;;;;;5093273;28;20260;-65
2021/12/28 12:54:42;;;;;;;0.57;0.57;;;9.50;99.90;;;;;;5096468;28;20184;-66
2021/12/28 12:57:12;;;;;;;0.52;0.52;;;9.50;99.90;;;;;;5097720;28;20199;-66
2021/12/28 13:00:11;;;;;;;0.43;0.43;;;9.50;99.90;;;;;;5096904;28;20204;-66
2021/12/28 13:02:38;;;;;;;0.60;0.60;;;9.60;99.90;;;;;;5080442;28;20302;-67
2021/12/28 13:05:21;;;;;;;0.60;0.60;;;9.60;99.90;;;;;;5096758;28;20194;-67
2021/12/28 13:07:49;;;;;;;0.50;0.50;;;9.60;99.90;;;;;;5096612;28;20546;-67
2021/12/28 13:10:19;;;;;;;0.40;0.40;;;9.60;99.90;;;;;;5096242;28;20788;-67
2021/12/28 13:12:53;;;;;;;0.50;0.50;;;9.60;99.90;;;;;;5096318;28;20732;-67
2021/12/28 13:15:21;;;;;;;0.50;0.50;;;9.60;99.90;;;;;;5096056;28;20191;-67
2021/12/28 13:17:49;;;;;;;0.50;0.50;;;9.60;99.90;;;;;;5096312;28;20290;-68
2021/12/28 13:20:22;;;;;;;0.45;0.45;;;9.60;99.90;;;;;;5096092;28;20693;-67
2021/12/28 13:22:55;;;;;;;0.50;0.50;;;9.70;99.90;;;;;;5096014;28;20313;-67
2021/12/28 13:25:28;;;;;;;0.40;0.40;;;9.70;99.90;;;;;;5096080;28;20285;-67
2021/12/28 13:27:56;;;;;;;0.40;0.40;;;9.70;99.90;;;;;;5096409;28;20283;-67
2021/12/28 13:30:25;;;;;;;0.40;0.40;;;9.70;99.90;;;;;;5096234;28;20223;-64
2021/12/28 13:32:55;;;;;;;0.50;0.50;;;9.70;99.90;;;;;;5097034;28;20273;-66
2021/12/28 13:35:25;;;;;;;0.40;0.40;;;9.70;99.90;;;;;;5096245;28;20286;-66
2021/12/28 13:37:57;;;;;;;0.40;0.40;;;9.70;99.90;;;;;;5096612;28;20179;-65
2021/12/28 13:40:27;;;;;;;0.40;0.40;;;9.70;99.90;;;;;;5095962;28;20191;-66
2021/12/28 13:43:10;;;;;;;0.45;0.45;;;9.70;99.90;;;;;;5095920;28;20661;-66
2021/12/28 13:45:41;;;;;;;0.40;0.40;;;9.20;99.90;;;;;;5096132;28;20275;-66
2021/12/28 13:48:20;;;;;;;0.70;0.70;;;9.70;99.90;;;;;;5096479;28;20184;-66
2021/12/28 13:50:52;;;;;;;0.75;0.75;;;9.60;99.90;;;;;;5096603;28;20285;-68
2021/12/28 13:53:21;;;;;;;0.60;0.60;;;9.60;99.90;;;;;;5096097;28;20216;-68
2021/12/28 13:55:52;;;;;;;0.45;0.45;;;9.50;99.90;;;;;;5096115;28;20286;-68
2021/12/28 13:58:23;;;;;;;1.10;0.50;;;9.50;99.90;;;;;;5095638;28;20726;-68
2021/12/28 14:00:52;;;;;;;0.60;0.60;;;9.40;99.90;;;;;;5096135;28;20531;-68
2021/12/28 14:03:21;;;;;;;0.57;0.57;;;9.40;99.90;;;;;;5095669;28;20306;-68
2021/12/28 14:05:50;;;;;;;0.65;0.65;;;9.40;99.90;;;;;;5095624;28;20203;-68
2021/12/28 14:08:18;;;;;;;0.80;0.80;;;9.40;99.90;;;;;;5095225;28;20238;-68
2021/12/28 14:10:47;;;;;;;1.48;1.20;;;9.40;99.90;;;;;;5095337;28;20301;-68
2021/12/28 14:13:17;;;;;;;1.23;1.20;;;9.40;99.90;;;;;;5095916;28;20219;-68
2021/12/28 14:16:02;;;;;;;1.30;1.20;;;9.30;99.90;;;;;;5095789;28;20226;-68
2021/12/28 14:18:36;;;;;;;0.70;0.70;;;9.30;99.90;;;;;;5095809;28;20275;-68
2021/12/28 14:21:27;;;;;;;0.70;0.47;;;9.10;99.90;;;;;;5095458;28;20190;-68
2021/12/28 14:24:00;;;;;;;0.40;0.40;;;9.00;99.90;;;;;;5094838;28;20235;-68
2021/12/28 14:26:29;;;;;;;0.85;0.57;;;8.90;99.90;;;;;;5095319;28;20275;-68
2021/12/28 14:28:59;;;;;;;0.88;0.40;;;8.80;99.90;;;;;;5095290;28;20294;-68
2021/12/28 14:31:27;;;;;;;0.40;0.40;;;8.90;99.90;;;;;;5095234;28;20209;-68
2021/12/28 14:33:56;;;;;;;0.45;0.40;;;8.80;99.90;;;;;;5095023;28;20317;-68
2021/12/28 14:36:32;;;;;;;0.30;0.30;;;8.80;99.90;;;;;;5095587;28;20290;-68
2021/12/28 14:39:11;;;;;;;0.30;0.30;;;8.80;99.90;;;;;;5095172;28;20262;-68
2021/12/28 14:41:39;;;;;;;0.40;0.40;;;8.80;99.90;;;;;;5094874;28;20342;-68
2021/12/28 14:44:12;;;;;;;0.43;0.40;;;8.80;99.90;;;;;;5094929;28;20314;-68
2021/12/28 14:46:40;;;;;;;0.50;0.50;;;8.70;99.90;;;;;;5094743;28;20253;-68
2021/12/28 14:49:27;;;;;;;0.30;0.30;;;8.70;99.90;;;;;;5094833;28;20310;-68
2021/12/28 14:52:09;;;;;;;0.65;0.47;;;8.70;99.90;;;;;;5094764;28;20190;-68
2021/12/28 14:54:36;;;;;;;0.30;0.30;;;8.70;99.90;;;;;;5094481;28;20706;-68
2021/12/28 14:57:03;;;;;;;0.40;0.40;;;8.60;99.90;;;;;;5094443;28;20289;-68
2021/12/28 14:59:30;;;;;;;0.30;0.30;;;8.50;99.90;;;;;;5094971;28;20252;-68
2021/12/28 15:01:59;;;;;;;0.50;0.50;;;8.60;99.90;;;;;;5094371;28;20290;-67
2021/12/28 15:04:30;;;;;;;0.30;0.30;;;8.50;99.90;;;;;;5094784;28;20237;-68
2021/12/28 15:07:01;;;;;;;0.40;0.40;;;8.50;99.90;;;;;;5094093;28;20564;-68
2021/12/28 15:09:30;;;;;;;0.40;0.40;;;8.50;99.90;;;;;;5094876;28;20214;-69
2021/12/28 15:12:02;;;;;;;0.40;0.40;;;8.50;99.90;;;;;;5094423;28;20290;-68
2021/12/28 15:14:29;;;;;;;0.52;0.52;;;8.40;99.90;;;;;;5094293;28;20202;-69
2021/12/28 15:16:56;;;;;;;0.85;0.85;;;8.40;99.90;;;;;;5093769;28;20203;-68
2021/12/28 15:19:25;;;;;;;0.70;0.70;;;8.40;99.90;;;;;;5094020;28;20289;-68
2021/12/28 15:21:53;;;;;;;1.33;1.10;;;8.30;99.90;;;;;;5094199;28;20286;-68
2021/12/28 15:24:22;;;;;;;1.00;1.00;;;8.30;99.90;;;;;;5093906;28;20749;-68
2021/12/28 15:26:49;;;;;;;0.80;0.80;;;8.20;99.90;;;;;;5093871;28;20257;-68
2021/12/28 15:29:16;;;;;;;0.60;0.60;;;8.10;99.90;;;;;;5093959;28;20225;-68
2021/12/28 15:31:45;;;;;;;1.60;0.60;;;8.10;99.90;;;;;;5094201;28;20290;-68
2021/12/28 15:34:13;;;;;;;1.00;0.60;;;8.10;99.90;;;;;;5093976;28;20215;-67
2021/12/28 15:36:40;;;;;;;0.65;0.60;;;8.10;99.90;;;;;;5094121;28;20199;-66
2021/12/28 15:39:08;;;;;;;0.50;0.50;;;8.10;99.90;;;;;;5093496;28;20692;-66
2021/12/28 15:41:36;;;;;;;0.88;0.70;;;8.10;99.90;;;;;;5093533;28;20633;-67
2021/12/28 15:44:04;;;;;;;1.10;0.55;;;8.10;99.90;;;;;;5093431;28;20309;-67
2021/12/28 15:46:34;;;;;;;1.80;0.80;;;8.10;99.90;;;;;;5093765;28;20286;-67
2021/12/28 15:49:01;;;;;;;0.70;0.70;;;8.10;99.90;;;;;;5093379;28;20203;-68
2021/12/28 15:51:28;;;;;;;1.10;0.60;;;8.10;99.90;;;;;;5093983;28;20292;-68
2021/12/28 15:53:55;;;;;;;2.53;0.88;;;8.10;99.90;;;;;;5094005;28;20254;-67
2021/12/28 15:56:22;;;;;;;0.98;0.50;;;8.10;99.90;;;;;;5094082;28;20183;-67
2021/12/28 15:58:50;;;;;;;0.60;0.60;;;8.10;99.90;;;;;;5093615;28;20729;-67
2021/12/28 16:01:17;;;;;;;1.08;0.70;;;8.10;99.90;;;;;;5093598;28;20226;-67
2021/12/28 16:03:45;;;;;;;0.60;0.60;;;8.10;99.90;;;;;;5093603;28;20215;-68
2021/12/28 16:06:15;;;;;;;2.00;0.63;;;8.10;99.90;;;;;;5093618;28;20286;-68
2021/12/28 16:08:43;;;;;;;0.60;0.60;;;8.10;99.90;;;;;;5093647;28;20184;-68
2021/12/28 16:11:10;;;;;;;0.95;0.73;;;8.00;99.90;;;;;;5093108;28;20272;-68
2021/12/28 16:13:36;;;;;;;0.85;0.70;;;8.00;99.90;;;;;;5093412;28;20225;-68
2021/12/28 16:16:05;;;;;;;1.05;1.00;;;7.90;99.90;;;;;;5093262;28;20697;-68
2021/12/28 16:18:32;;;;;;;0.65;0.57;;;7.90;99.90;;;;;;5093378;28;20275;-67
2021/12/28 16:21:00;;;;;;;0.50;0.50;;;7.80;99.90;;;;;;5093259;28;20267;-67
2021/12/28 16:23:27;;;;;;;0.60;0.60;;;7.70;99.90;;;;;;5093233;28;20231;-68
2021/12/28 16:25:54;;;;;;;1.58;0.70;;;7.60;99.90;;;;;;5093378;28;20282;-67
2021/12/28 16:28:21;;;;;;;0.95;0.77;;;7.60;99.90;;;;;;5095276;28;20289;-67
2021/12/28 16:30:48;;;;;;;0.60;0.60;;;7.60;99.90;;;;;;5096963;28;20310;-67
2021/12/28 16:33:16;;;;;;;0.60;0.60;;;7.60;99.90;;;;;;5097217;28;20219;-67
2021/12/28 16:35:43;;;;;;;1.25;0.80;;;7.60;99.90;;;;;;5097178;28;20199;-67
2021/12/28 16:38:10;;;;;;;1.13;0.80;;;7.60;99.90;;;;;;5096935;28;20596;-67
2021/12/28 16:40:37;;;;;;;1.85;0.90;;;7.60;99.90;;;;;;5096777;28;20721;-67
2021/12/28 16:43:05;;;;;;;2.70;0.90;;;7.60;99.90;;;;;;5097046;28;20314;-67
2021/12/28 16:45:34;;;;;;;0.70;0.70;;;7.50;99.90;;;;;;5096804;28;20203;-67
2021/12/28 16:48:01;;;;;;;1.67;0.98;;;7.60;99.90;;;;;;5097024;28;20292;-67
2021/12/28 16:50:32;;;;;;;1.27;0.90;;;7.60;99.90;;;;;;5096836;28;20325;-66
2021/12/28 16:52:58;;;;;;;0.70;0.70;;;7.60;99.90;;;;;;5096637;28;20223;-66
2021/12/28 16:55:25;;;;;;;1.00;0.82;;;7.70;99.90;;;;;;5096656;28;20199;-66
2021/12/28 16:57:52;;;;;;;2.58;0.98;;;7.70;99.90;;;;;;5096695;28;20290;-66
2021/12/28 17:00:20;;;;;;;1.70;1.00;;;7.70;99.90;;;;;;5096178;28;20758;-66
2021/12/28 17:02:46;;;;;;;1.50;1.05;;;7.80;99.90;;;;;;5096176;28;20562;-66
2021/12/28 17:05:13;;;;;;;1.48;1.30;;;7.80;99.90;;;;;;5096623;28;20306;-66
2021/12/28 17:07:42;;;;;;;1.30;1.20;;;7.80;99.90;;;;;;5096260;28;20210;-66
2021/12/28 17:10:09;;;;;;;2.22;1.20;;;7.90;99.90;;;;;;5096436;28;20302;-66
2021/12/28 17:12:36;;;;;;;1.65;1.00;;;7.80;99.90;;;;;;5096417;28;20301;-66
2021/12/28 17:15:05;;;;;;;1.58;1.10;;;7.80;99.90;;;;;;5098182;28;20648;-65